METAR Data
IDs: Format: Raw Decoded Include TAF

Data at: 1349 UTC 26 Feb 2021

KOJC 261253Z 11007KT 10SM CLR M01/M06 A3003 RMK AO2 SLP175 T10061056